ADDS METAR Data INFO
IDs: Format: Raw Decoded Include TAF

Data at: 1330 UTC 19 Jul 2018

KDEN 191253Z 24009KT 9SM BKN220 21/11 A3016 RMK AO2 SLP118 T02110106
KDEN 191153Z 25008KT 10SM FEW130 BKN220 19/11 A3014 RMK AO2 SLP114 T01890106 10206 20178 52006
KDEN 191053Z 26007KT 10SM FEW120 BKN220 18/12 A3014 RMK AO2 SLP115 T01830117
KDEN 190953Z 33005KT 10SM SCT220 19/13 A3013 RMK AO2 SLP107 T01890128
KDEN 190853Z 33008KT 10SM SCT220 19/12 A3012 RMK AO2 SLP106 T01940122 52001
KDEN 190753Z 33008KT 10SM FEW220 20/13 A3012 RMK AO2 SLP106 T02000128
KDEN 190653Z 06005KT 10SM FEW160 19/12 A3012 RMK AO2 SLP107 T01940117 403500172
KDEN 190553Z 05007KT 10SM FEW160 21/11 A3012 RMK AO2 SLP107 T02060111 10339 20206 50007
KDEN 190453Z 11008KT 10SM FEW160 24/10 A3014 RMK AO2 SLP113 T02390100
KDEN 190353Z 06009KT 10SM FEW160 26/08 A3013 RMK AO2 SLP111 T02560083
KDEN 190253Z 17008KT 10SM SCT160 SCT250 26/08 A3010 RMK AO2 SLP106 T02610083 53003
KDEN 190153Z 12007KT 10SM FEW150 FEW250 30/07 A3008 RMK AO2 SLP098 T03000067
KDEN 190053Z 10011KT 10SM FEW150 FEW250 32/05 A3008 RMK AO2 SLP097 T03170050
KDEN 182353Z 11011KT 10SM FEW140 FEW250 34/06 A3008 RMK AO2 SLP094 T03390056 10350 20311 56013
KDEN 182253Z 02009G15KT 360V070 10SM FEW140 FEW220 34/04 A3010 RMK AO2 SLP100 T03390044
KDEN 182153Z 35004KT 10SM FEW120 FEW220 34/05 A3011 RMK AO2 SLP101 T03440050
KDEN 182053Z 03011G19KT 10SM FEW120 SCT220 33/05 A3013 RMK AO2 SLP107 T03330050 56011
KDEN 181953Z 05011KT 10SM FEW120 SCT220 33/06 A3014 RMK AO2 SLP110 T03330061
KDEN 181853Z 30007KT 10SM FEW120 SCT220 33/06 A3015 RMK AO2 SLP116 T03280061
KDEN 181753Z 10005KT 10SM FEW110 SCT220 32/08 A3017 RMK AO2 SLP125 T03170083 10317 20172 58012
KDEN 181653Z 17004KT 10SM FEW110 SCT220 28/12 A3018 RMK AO2 SLP135 T02780117
KDEN 181553Z VRB03KT 10SM FEW110 SCT220 26/13 A3020 RMK AO2 SLP141 T02560133
KDEN 181453Z 24005KT 10SM FEW110 SCT220 22/13 A3021 RMK AO2 SLP151 T02170133 50005
KDEN 181353Z 30006KT 10SM FEW120 SCT220 19/13 A3021 RMK AO2 SLP153 T01940133
KDEN 181253Z 34006KT 10SM SCT120 BKN220 18/13 A3021 RMK AO2 SLP152 T01830128
KDEN 181153Z 35011KT 10SM FEW130 BKN220 18/13 A3019 RMK AO2 SLP139 T01780128 10211 20172 53019
KDEN 181053Z 34008KT 10SM FEW140 SCT220 17/12 A3016 RMK AO2 WSHFT 0947 SLP129 T01720122
KDEN 181007Z 34009KT 10SM SCT220 19/11 A3015 RMK AO2 WSHFT 0947 T01940111
KDEN 180953Z 26012KT 10SM SCT220 20/11 A3014 RMK AO2 SLP121 T02000111
KDEN 180853Z 21017KT 10SM BKN220 21/11 A3013 RMK AO2 PK WND 21026/0806 SLP113 T02060111 56012
KDEN 180753Z 20019KT 10SM BKN220 21/11 A3013 RMK AO2 PK WND 20027/0742 SLP117 T02060111
KDEN 180653Z 17017KT 10SM FEW140 BKN220 20/11 A3015 RMK AO2 PK WND 18026/0606 SLP127 T02000106 403110156
KDEN 180553Z 17018KT 10SM FEW140 BKN220 19/12 A3017 RMK AO2 PK WND 17028/0533 SLP138 T01940117 10283 20194 58006
KDEN 180453Z 17019KT 10SM FEW160 BKN220 21/11 A3017 RMK AO2 SLP138 T02060111
KDEN 180353Z 14015KT 10SM FEW080 FEW160 SCT220 22/12 A3019 RMK AO2 WSHFT 0320 SLP147 T02170117
KDEN 180337Z 12015G23KT 10SM FEW080 FEW160 SCT220 21/12 A3020 RMK AO2 WSHFT 0320 T02060117
KDEN 180253Z 19009KT 10SM FEW120 FEW160 BKN220 23/14 A3019 RMK AO2 SLP149 T02280139 53003
KDEN 180153Z 21013KT 10SM FEW120 SCT150 BKN220 25/12 A3016 RMK AO2 SLP136 T02500122